Time;durP1;ratioP1;P1;durP2;ratioP2;P2;SDS_P1;SDS_P2;PMS_P1;PMS_P2;Temp;Humidity;BMP_temperature;BMP_pressure;BME280_temperature;BME280_humidity;BME280_pressure;Samples;Min_cycle;Max_cycle;Signal;HPM_P1;HPM_P2
2024/01/02 00:00:22;;;;;;;12.18;1.75;;;7.30;86.10;;;;;;9179807;19;20014;-73
2024/01/02 00:03:29;;;;;;;18.25;3.97;;;7.30;86.10;;;;;;9178696;19;20018;-73
2024/01/02 00:06:38;;;;;;;18.38;2.45;;;7.30;86.10;;;;;;9177732;19;20464;-73
2024/01/02 00:09:45;;;;;;;17.65;2.38;;;7.40;86.20;;;;;;9179757;19;20022;-74
2024/01/02 00:12:51;;;;;;;17.85;3.50;;;7.40;86.10;;;;;;9180258;19;20015;-73
2024/01/02 00:15:58;;;;;;;12.27;1.77;;;7.40;86.20;;;;;;9179737;19;20015;-74
2024/01/02 00:19:04;;;;;;;10.95;2.45;;;7.40;86.20;;;;;;9178991;19;20445;-74
2024/01/02 00:22:14;;;;;;;23.50;2.53;;;7.40;86.20;;;;;;9177506;19;20504;-74
2024/01/02 00:25:20;;;;;;;10.35;2.28;;;7.40;86.30;;;;;;9179237;19;20383;-74
2024/01/02 00:28:27;;;;;;;10.68;2.20;;;7.40;86.30;;;;;;9179175;19;20015;-74
2024/01/02 00:31:33;;;;;;;19.83;2.65;;;7.40;86.40;;;;;;9177167;19;20049;-74
2024/01/02 00:34:41;;;;;;;20.83;2.45;;;7.50;86.40;;;;;;9179517;19;20018;-74
2024/01/02 00:37:49;;;;;;;21.15;2.58;;;7.50;86.50;;;;;;9178851;19;20014;-73
2024/01/02 00:40:57;;;;;;;22.67;2.78;;;7.50;86.50;;;;;;9176387;19;20018;-75
2024/01/02 00:44:03;;;;;;;17.65;2.95;;;7.50;86.60;;;;;;9179160;19;20015;-73
2024/01/02 00:47:11;;;;;;;8.15;2.50;;;7.50;86.50;;;;;;9178611;19;20018;-73
2024/01/02 00:50:16;;;;;;;28.83;4.35;;;7.50;86.50;;;;;;9172988;19;20017;-74
2024/01/02 00:53:27;;;;;;;15.75;3.15;;;7.50;86.60;;;;;;9179086;19;20021;-72
2024/01/02 00:56:32;;;;;;;16.10;2.67;;;7.50;86.70;;;;;;9178496;19;20018;-72
2024/01/02 00:59:40;;;;;;;15.35;3.72;;;7.50;86.70;;;;;;9177519;19;20011;-73
2024/01/02 01:02:46;;;;;;;16.08;2.67;;;7.60;86.70;;;;;;9174115;19;20054;-73
2024/01/02 01:05:53;;;;;;;16.23;3.17;;;7.60;86.80;;;;;;9177110;19;20022;-73
2024/01/02 01:09:02;;;;;;;16.40;3.10;;;7.60;86.80;;;;;;9177843;19;20416;-74
2024/01/02 01:12:10;;;;;;;15.68;2.47;;;7.60;86.80;;;;;;9176984;19;20361;-73
2024/01/02 01:15:18;;;;;;;13.32;2.40;;;7.60;86.80;;;;;;9178547;19;20048;-74
2024/01/02 01:18:26;;;;;;;20.70;2.78;;;7.60;86.90;;;;;;9177598;19;20486;-75
2024/01/02 01:21:31;;;;;;;20.95;2.40;;;7.70;86.90;;;;;;9176685;19;20025;-73
2024/01/02 01:24:43;;;;;;;21.23;2.97;;;7.70;86.90;;;;;;9176995;19;20669;-75
2024/01/02 01:27:49;;;;;;;12.32;2.42;;;7.70;86.90;;;;;;9175562;19;20801;-73
2024/01/02 01:30:57;;;;;;;20.05;2.80;;;7.70;86.90;;;;;;9177135;19;20015;-73
2024/01/02 01:34:02;;;;;;;16.13;3.00;;;7.70;86.90;;;;;;9176721;19;20032;-73
2024/01/02 01:37:10;;;;;;;15.77;3.35;;;7.70;86.90;;;;;;9175166;19;20040;-74
2024/01/02 01:40:21;;;;;;;10.38;2.75;;;7.70;87.00;;;;;;9174524;19;20105;-74
2024/01/02 01:43:29;;;;;;;16.65;2.30;;;7.70;87.10;;;;;;9174710;19;20808;-74
2024/01/02 01:46:39;;;;;;;12.55;3.08;;;7.70;87.00;;;;;;9172385;19;20472;-74
2024/01/02 01:49:47;;;;;;;16.73;2.80;;;7.70;87.10;;;;;;9170867;19;20018;-75
2024/01/02 01:52:53;;;;;;;18.42;2.63;;;7.80;87.10;;;;;;9173564;19;20041;-74
2024/01/02 01:56:04;;;;;;;11.30;2.10;;;7.70;87.10;;;;;;9174682;19;20026;-74
2024/01/02 01:59:10;;;;;;;11.02;1.70;;;7.80;87.20;;;;;;9174294;19;20003;-73
2024/01/02 02:02:19;;;;;;;15.68;2.13;;;7.80;87.20;;;;;;9171580;19;20379;-74
2024/01/02 02:05:28;;;;;;;13.60;2.38;;;7.80;87.20;;;;;;9175307;19;20127;-74
2024/01/02 02:08:36;;;;;;;12.68;2.83;;;7.80;87.20;;;;;;9174182;19;20022;-75
2024/01/02 02:11:45;;;;;;;16.80;2.65;;;7.80;87.30;;;;;;9175562;19;20068;-73
2024/01/02 02:14:53;;;;;;;9.07;2.20;;;7.80;87.30;;;;;;9174684;19;20292;-75
2024/01/02 02:18:16;;;;;;;12.13;2.15;;;7.80;87.40;;;;;;9175285;19;20027;-74
2024/01/02 02:21:24;;;;;;;12.57;2.20;;;7.80;87.40;;;;;;9174767;19;20111;-74
2024/01/02 02:24:33;;;;;;;12.23;2.50;;;7.80;87.30;;;;;;9170052;19;20022;-73
2024/01/02 02:27:41;;;;;;;10.15;2.45;;;7.90;87.60;;;;;;9176443;19;20014;-75
2024/01/02 02:30:47;;;;;;;13.30;3.20;;;7.90;87.50;;;;;;9183849;19;20345;-73
2024/01/02 02:33:54;;;;;;;11.73;3.00;;;7.90;87.50;;;;;;9183920;19;20048;-73
2024/01/02 02:37:00;;;;;;;19.45;2.58;;;7.90;87.50;;;;;;9184215;19;20023;-74
2024/01/02 02:40:12;;;;;;;11.48;1.85;;;8.00;87.50;;;;;;9182581;19;20018;-73
2024/01/02 02:43:18;;;;;;;5.95;1.52;;;7.90;87.50;;;;;;9182740;19;20479;-74
2024/01/02 02:46:25;;;;;;;7.32;1.88;;;7.90;87.50;;;;;;9182488;19;20010;-73
2024/01/02 02:49:31;;;;;;;5.05;1.60;;;8.00;87.50;;;;;;9178584;19;20019;-75
2024/01/02 02:52:39;;;;;;;6.68;1.42;;;8.00;87.60;;;;;;9184369;19;20007;-74
2024/01/02 02:55:47;;;;;;;4.40;1.55;;;8.00;87.50;;;;;;9183434;19;20018;-74
2024/01/02 02:58:55;;;;;;;10.70;1.63;;;8.00;87.60;;;;;;9182896;19;20373;-74
2024/01/02 03:02:01;;;;;;;8.13;1.73;;;8.00;87.70;;;;;;9183363;19;20060;-73
2024/01/02 03:05:28;;;;;;;8.27;1.55;;;8.00;87.60;;;;;;9181497;19;20102;-75
2024/01/02 03:08:34;;;;;;;5.10;1.30;;;8.00;87.70;;;;;;9181362;19;20049;-75
2024/01/02 03:11:45;;;;;;;3.95;1.50;;;8.00;87.60;;;;;;9183578;19;20110;-74
2024/01/02 03:14:50;;;;;;;3.92;1.48;;;8.00;87.80;;;;;;9182499;19;20018;-74
2024/01/02 03:17:58;;;;;;;4.25;1.30;;;8.00;87.60;;;;;;9178615;19;20015;-75
2024/01/02 03:21:04;;;;;;;5.50;1.20;;;8.00;87.70;;;;;;9178645;19;20022;-74
2024/01/02 03:24:12;;;;;;;2.75;1.05;;;8.00;87.70;;;;;;9177472;19;20019;-74
2024/01/02 03:27:20;;;;;;;6.93;1.13;;;8.00;87.70;;;;;;9182207;19;20361;-75
2024/01/02 03:30:27;;;;;;;3.10;1.48;;;8.00;87.70;;;;;;9181635;19;20014;-74
2024/01/02 03:33:33;;;;;;;6.35;1.27;;;8.00;87.70;;;;;;9182683;19;20014;-74
2024/01/02 03:36:41;;;;;;;7.38;1.10;;;8.00;87.80;;;;;;9182249;19;20015;-74
2024/01/02 03:39:48;;;;;;;2.88;0.90;;;8.00;87.70;;;;;;9178281;19;20016;-70
2024/01/02 03:42:58;;;;;;;5.10;1.20;;;8.00;87.80;;;;;;9180465;19;20018;-72
2024/01/02 03:46:04;;;;;;;5.28;1.02;;;8.00;87.80;;;;;;9181484;19;20043;-71
2024/01/02 03:49:12;;;;;;;7.75;1.10;;;8.10;87.80;;;;;;9174966;19;20026;-71
2024/01/02 03:52:18;;;;;;;8.95;1.75;;;8.00;87.70;;;;;;9181228;19;20469;-71
2024/01/02 03:55:26;;;;;;;9.55;1.17;;;8.00;87.80;;;;;;9179940;19;20018;-71
2024/01/02 03:58:34;;;;;;;4.63;1.30;;;8.00;87.80;;;;;;9179138;19;20014;-71
2024/01/02 04:01:45;;;;;;;4.05;1.05;;;8.00;87.80;;;;;;9179832;19;20014;-71
2024/01/02 04:04:51;;;;;;;3.60;0.95;;;8.00;87.90;;;;;;9177063;19;20371;-70
2024/01/02 04:07:59;;;;;;;3.80;1.00;;;8.00;87.80;;;;;;9177615;19;20553;-71
2024/01/02 04:11:05;;;;;;;4.32;1.17;;;8.00;87.90;;;;;;9179810;19;20025;-70
2024/01/02 04:14:15;;;;;;;5.90;0.90;;;8.00;88.50;;;;;;9180264;19;20030;-72
2024/01/02 04:17:21;;;;;;;5.55;1.13;;;8.00;87.90;;;;;;9177022;19;20023;-70
2024/01/02 04:20:29;;;;;;;1.50;0.60;;;8.00;87.90;;;;;;9178216;19;20033;-72
2024/01/02 04:23:35;;;;;;;4.15;0.88;;;8.00;87.90;;;;;;9178739;19;20018;-75
2024/01/02 04:26:42;;;;;;;2.10;0.60;;;8.00;88.60;;;;;;9179208;19;20079;-69
2024/01/02 04:29:51;;;;;;;2.33;0.80;;;8.00;88.00;;;;;;9180169;19;20090;-71
2024/01/02 04:32:58;;;;;;;3.80;0.70;;;8.10;88.10;;;;;;9179171;19;20022;-70
2024/01/02 04:36:04;;;;;;;1.42;0.73;;;8.00;88.00;;;;;;9177272;19;20014;-70
2024/01/02 04:39:15;;;;;;;0.85;0.70;;;8.00;88.00;;;;;;9179555;19;20007;-71
2024/01/02 04:42:21;;;;;;;2.63;0.75;;;8.10;88.00;;;;;;9178921;19;20011;-72
2024/01/02 04:45:32;;;;;;;3.58;1.00;;;8.10;88.00;;;;;;9174841;19;20025;-70
2024/01/02 04:48:37;;;;;;;1.95;0.90;;;8.10;88.00;;;;;;9177293;19;20030;-73
2024/01/02 04:51:45;;;;;;;2.50;0.90;;;8.10;88.10;;;;;;9177338;19;20026;-74
2024/01/02 04:54:51;;;;;;;3.38;0.60;;;8.10;88.10;;;;;;9176654;19;20018;-73
2024/01/02 04:58:01;;;;;;;1.08;0.60;;;8.10;88.10;;;;;;9178092;19;20029;-74
2024/01/02 05:01:09;;;;;;;3.03;0.80;;;8.10;88.10;;;;;;9177517;19;20014;-72
2024/01/02 05:04:19;;;;;;;2.13;0.83;;;8.10;88.20;;;;;;9176149;19;20011;-74
2024/01/02 05:07:25;;;;;;;0.50;0.50;;;8.10;88.10;;;;;;9176066;19;20031;-74
2024/01/02 05:10:33;;;;;;;0.77;0.68;;;8.10;88.20;;;;;;9177392;19;20518;-72
2024/01/02 05:13:39;;;;;;;2.75;0.90;;;8.10;88.20;;;;;;9173051;19;20029;-73
2024/01/02 05:16:50;;;;;;;1.05;0.63;;;8.10;88.30;;;;;;9177671;19;20527;-74
2024/01/02 05:19:56;;;;;;;0.65;0.50;;;8.10;88.30;;;;;;9177942;19;20023;-74
2024/01/02 05:23:04;;;;;;;0.47;0.45;;;8.10;88.30;;;;;;9177298;19;20836;-74
2024/01/02 05:26:20;;;;;;;0.73;0.50;;;8.10;88.40;;;;;;9177337;19;20018;-74
2024/01/02 05:29:28;;;;;;;1.63;0.50;;;8.20;88.40;;;;;;9177330;19;20010;-73
2024/01/02 05:32:36;;;;;;;1.25;0.47;;;8.10;88.30;;;;;;9174487;19;20016;-74
2024/01/02 05:35:44;;;;;;;2.45;0.70;;;8.10;88.50;;;;;;9175771;19;20029;-74
2024/01/02 05:38:50;;;;;;;0.90;0.57;;;8.10;88.50;;;;;;9175493;19;20015;-74
2024/01/02 05:41:57;;;;;;;0.50;0.50;;;8.10;88.50;;;;;;9177218;19;20028;-73
2024/01/02 05:45:03;;;;;;;0.80;0.70;;;8.20;88.60;;;;;;9174926;19;20014;-72
2024/01/02 05:48:13;;;;;;;1.77;0.70;;;8.20;88.60;;;;;;9176167;19;20010;-73
2024/01/02 05:51:21;;;;;;;0.75;0.60;;;8.20;88.70;;;;;;9170444;19;20022;-74
2024/01/02 05:54:28;;;;;;;0.70;0.70;;;8.20;88.70;;;;;;9174075;19;20014;-73
2024/01/02 05:57:35;;;;;;;0.80;0.65;;;8.20;88.60;;;;;;9175820;19;20014;-71
2024/01/02 06:00:42;;;;;;;0.60;0.60;;;8.20;88.70;;;;;;9176144;19;20010;-71
2024/01/02 06:03:50;;;;;;;2.35;0.90;;;8.30;88.80;;;;;;9174232;19;20034;-70
2024/01/02 06:06:59;;;;;;;1.88;1.23;;;8.30;88.90;;;;;;9173370;19;20078;-70
2024/01/02 06:10:05;;;;;;;1.63;0.93;;;8.30;88.80;;;;;;9175102;19;20010;-71
2024/01/02 06:13:13;;;;;;;0.80;0.60;;;8.30;88.80;;;;;;9175963;19;20367;-71
2024/01/02 06:16:19;;;;;;;0.73;0.60;;;8.30;88.80;;;;;;9175005;19;20591;-70
2024/01/02 06:19:30;;;;;;;0.75;0.75;;;8.40;88.90;;;;;;9173549;19;20018;-70
2024/01/02 06:22:36;;;;;;;1.10;1.00;;;8.40;88.90;;;;;;9172767;19;20010;-74
2024/01/02 06:25:43;;;;;;;1.13;1.02;;;8.40;88.90;;;;;;9173349;19;20022;-70
2024/01/02 06:28:49;;;;;;;0.75;0.75;;;8.40;89.00;;;;;;9174616;19;20014;-70
2024/01/02 06:31:56;;;;;;;0.70;0.70;;;8.50;89.00;;;;;;9174929;19;20015;-70
2024/01/02 06:35:04;;;;;;;1.58;0.65;;;8.50;89.00;;;;;;9175403;19;20040;-70
2024/01/02 06:38:12;;;;;;;1.02;0.80;;;8.50;89.10;;;;;;9174543;19;20031;-69
2024/01/02 06:41:18;;;;;;;1.02;0.90;;;8.50;89.10;;;;;;9174440;19;20365;-71
2024/01/02 06:44:25;;;;;;;1.05;0.80;;;8.50;89.10;;;;;;9174522;19;20015;-73
2024/01/02 06:47:31;;;;;;;0.70;0.70;;;8.60;89.20;;;;;;9173646;19;20023;-69
2024/01/02 06:50:41;;;;;;;2.95;0.90;;;8.60;89.20;;;;;;9170038;19;20025;-74
2024/01/02 06:53:47;;;;;;;1.20;0.98;;;8.60;89.30;;;;;;9174667;19;20015;-70
2024/01/02 06:56:56;;;;;;;1.30;0.95;;;8.60;89.20;;;;;;9173421;19;20025;-71
2024/01/02 07:00:02;;;;;;;0.80;0.80;;;8.70;89.30;;;;;;9172946;19;20029;-72
2024/01/02 07:03:09;;;;;;;1.40;1.10;;;8.70;89.40;;;;;;9174106;19;20011;-69
2024/01/02 07:06:18;;;;;;;3.15;1.05;;;8.80;89.40;;;;;;9170578;19;20019;-70
2024/01/02 07:09:26;;;;;;;0.95;0.90;;;8.80;89.50;;;;;;9173466;19;20025;-71
2024/01/02 07:12:31;;;;;;;0.93;0.93;;;8.90;89.50;;;;;;9172467;19;20018;-71
2024/01/02 07:15:41;;;;;;;1.00;1.00;;;8.90;89.60;;;;;;9179113;19;20014;-70
2024/01/02 07:18:47;;;;;;;0.82;0.82;;;9.00;89.60;;;;;;9180424;19;20018;-75
2024/01/02 07:21:57;;;;;;;1.30;1.10;;;9.00;89.70;;;;;;9181819;19;20019;-70
2024/01/02 07:25:03;;;;;;;3.05;1.20;;;9.10;89.80;;;;;;9181023;19;20029;-71
2024/01/02 07:28:11;;;;;;;1.60;1.20;;;9.10;89.80;;;;;;9182135;19;20038;-71
2024/01/02 07:31:18;;;;;;;1.85;1.60;;;9.20;89.90;;;;;;9178821;19;20022;-71
2024/01/02 07:34:26;;;;;;;1.52;1.40;;;9.20;89.90;;;;;;9181220;19;20014;-70
2024/01/02 07:37:34;;;;;;;2.00;1.80;;;9.30;89.90;;;;;;9180889;19;20014;-70
2024/01/02 07:40:42;;;;;;;1.90;1.63;;;9.30;90.00;;;;;;9180785;19;20014;-69
2024/01/02 07:43:48;;;;;;;3.28;2.03;;;9.30;90.00;;;;;;9180592;19;20026;-70
2024/01/02 07:46:55;;;;;;;2.70;2.13;;;9.40;90.00;;;;;;9178128;19;20484;-70
2024/01/02 07:50:04;;;;;;;2.30;1.95;;;9.50;90.10;;;;;;9176226;19;20018;-70
2024/01/02 07:53:19;;;;;;;2.38;2.10;;;9.50;90.00;;;;;;9181599;19;20356;-70
2024/01/02 07:56:26;;;;;;;3.72;2.55;;;9.60;90.10;;;;;;9180082;19;20006;-70
2024/01/02 07:59:33;;;;;;;3.92;2.63;;;9.60;90.10;;;;;;9179602;19;20029;-71
2024/01/02 08:02:39;;;;;;;7.45;2.50;;;9.70;90.10;;;;;;9177043;19;20026;-70
2024/01/02 08:05:47;;;;;;;5.25;2.92;;;9.70;90.10;;;;;;9180028;19;20018;-70
2024/01/02 08:08:55;;;;;;;4.03;3.10;;;9.80;90.20;;;;;;9179194;19;20018;-70
2024/01/02 08:12:03;;;;;;;4.68;2.88;;;9.80;90.20;;;;;;9178510;19;20010;-70
2024/01/02 08:15:09;;;;;;;3.78;2.90;;;9.90;90.20;;;;;;9180653;19;20025;-70
2024/01/02 08:18:20;;;;;;;6.05;2.92;;;10.00;90.20;;;;;;9180582;19;20040;-73
2024/01/02 08:21:26;;;;;;;6.75;2.92;;;10.00;90.20;;;;;;9180833;19;20384;-74
2024/01/02 08:24:38;;;;;;;4.32;2.90;;;10.10;90.30;;;;;;9177001;19;20019;-74
2024/01/02 08:27:44;;;;;;;5.13;3.13;;;10.10;90.30;;;;;;9179180;19;20021;-73
2024/01/02 08:30:51;;;;;;;6.93;3.08;;;10.20;90.30;;;;;;9179536;19;20616;-74
2024/01/02 08:33:57;;;;;;;9.60;3.47;;;10.30;90.30;;;;;;9179889;19;20043;-74
2024/01/02 08:37:06;;;;;;;10.45;3.45;;;10.30;90.30;;;;;;9185286;19;20078;-75
2024/01/02 08:40:15;;;;;;;10.60;3.85;;;10.30;90.30;;;;;;9183073;19;20011;-74
2024/01/02 08:43:22;;;;;;;9.73;3.08;;;10.40;90.30;;;;;;9181135;19;20015;-73
2024/01/02 08:46:28;;;;;;;9.18;3.67;;;10.50;90.30;;;;;;9181497;19;20029;-74
2024/01/02 08:49:35;;;;;;;9.40;3.33;;;10.50;90.30;;;;;;9179932;19;20026;-75
2024/01/02 08:52:41;;;;;;;7.90;3.25;;;10.60;90.40;;;;;;9177695;19;20018;-71
2024/01/02 08:55:51;;;;;;;5.65;2.90;;;10.60;90.40;;;;;;9176865;19;20019;-70
2024/01/02 08:58:56;;;;;;;15.63;3.10;;;10.70;90.40;;;;;;9174155;19;20056;-69
2024/01/02 09:02:04;;;;;;;11.68;3.25;;;10.70;90.40;;;;;;9177574;19;20377;-71
2024/01/02 09:05:10;;;;;;;11.32;3.83;;;10.80;90.40;;;;;;9177543;19;20014;-69
2024/01/02 09:08:18;;;;;;;12.32;3.67;;;10.80;90.40;;;;;;9174803;19;20014;-72
2024/01/02 09:11:26;;;;;;;12.35;3.60;;;10.80;90.40;;;;;;9175347;19;20018;-72
2024/01/02 09:14:35;;;;;;;17.05;4.43;;;10.90;90.40;;;;;;9175697;19;20010;-72
2024/01/02 09:17:43;;;;;;;20.77;3.67;;;11.00;90.40;;;;;;9176146;19;20022;-74
2024/01/02 09:20:50;;;;;;;13.48;3.47;;;10.90;90.40;;;;;;9176086;19;20015;-75
2024/01/02 09:23:57;;;;;;;18.63;3.38;;;11.00;90.70;;;;;;9174036;19;20010;-75
2024/01/02 09:27:08;;;;;;;22.00;3.03;;;11.00;90.40;;;;;;9173020;19;20738;-75
2024/01/02 09:30:15;;;;;;;29.15;4.15;;;11.10;90.50;;;;;;9175784;19;20015;-75
2024/01/02 09:33:25;;;;;;;22.33;3.95;;;11.10;90.50;;;;;;9174434;19;20038;-75
2024/01/02 09:36:30;;;;;;;28.42;3.55;;;11.20;90.50;;;;;;9172626;19;20010;-76
2024/01/02 09:39:38;;;;;;;38.28;5.07;;;11.20;90.50;;;;;;9175131;19;20019;-75
2024/01/02 09:42:55;;;;;;;29.15;4.07;;;11.20;90.50;;;;;;9176822;19;20364;-75
2024/01/02 09:46:10;;;;;;;28.33;4.07;;;11.30;90.60;;;;;;9175330;19;20018;-75
2024/01/02 09:49:28;;;;;;;30.55;4.95;;;11.30;90.60;;;;;;9171407;19;20014;-75
2024/01/02 09:52:51;;;;;;;33.38;5.35;;;11.40;90.60;;;;;;9175278;19;20097;-75
2024/01/02 09:56:06;;;;;;;38.05;6.25;;;11.40;90.60;;;;;;9176075;19;20011;-74
2024/01/02 09:59:28;;;;;;;34.53;5.30;;;11.40;90.60;;;;;;9176850;19;20021;-75
2024/01/02 10:02:55;;;;;;;50.92;5.28;;;11.50;90.70;;;;;;9175430;19;20018;-75
2024/01/02 10:06:15;;;;;;;29.95;3.63;;;11.50;90.70;;;;;;9174826;19;20025;-75
2024/01/02 10:09:37;;;;;;;27.35;4.60;;;11.60;90.70;;;;;;9175303;19;20011;-75
2024/01/02 10:13:06;;;;;;;34.83;4.13;;;11.60;90.70;;;;;;9175402;19;20014;-74
2024/01/02 10:16:22;;;;;;;26.98;4.05;;;11.70;90.70;;;;;;9174484;19;20014;-71
2024/01/02 10:19:41;;;;;;;30.90;4.05;;;11.70;90.70;;;;;;9175320;19;20017;-74
2024/01/02 10:22:57;;;;;;;29.88;4.82;;;11.70;90.70;;;;;;9175703;19;20017;-73
2024/01/02 10:26:09;;;;;;;23.42;3.83;;;11.80;90.70;;;;;;9173315;19;20025;-73
2024/01/02 10:29:25;;;;;;;20.90;3.60;;;11.80;90.70;;;;;;9175087;19;20488;-73
2024/01/02 10:32:46;;;;;;;27.35;3.60;;;11.80;90.60;;;;;;9175425;19;20403;-73
2024/01/02 10:35:55;;;;;;;25.02;3.40;;;11.90;90.70;;;;;;9174004;19;20014;-73
2024/01/02 10:39:11;;;;;;;32.53;4.28;;;11.90;90.60;;;;;;9174049;19;20015;-74
2024/01/02 10:42:36;;;;;;;26.15;5.57;;;11.90;90.70;;;;;;9172340;19;20025;-74
2024/01/02 10:45:54;;;;;;;27.83;3.30;;;12.00;90.70;;;;;;9174025;19;20014;-74
2024/01/02 10:49:14;;;;;;;30.58;3.70;;;12.00;90.70;;;;;;9169461;19;20010;-69
2024/01/02 10:52:27;;;;;;;40.58;5.70;;;12.00;90.70;;;;;;9184480;19;20049;-70
2024/01/02 10:55:44;;;;;;;25.58;4.20;;;12.10;90.70;;;;;;9183800;19;20022;-69
2024/01/02 10:59:00;;;;;;;27.52;3.90;;;12.10;90.70;;;;;;9183910;19;20022;-68
2024/01/02 11:02:20;;;;;;;34.40;4.35;;;12.10;90.70;;;;;;9183656;19;20086;-68
2024/01/02 11:05:38;;;;;;;34.08;4.72;;;12.20;90.70;;;;;;9182912;19;20479;-69
2024/01/02 11:08:52;;;;;;;28.58;4.95;;;12.20;90.60;;;;;;9180426;19;20015;-69
2024/01/02 11:12:02;;;;;;;19.17;5.53;;;12.30;90.60;;;;;;9182550;19;20025;-69
2024/01/02 11:15:21;;;;;;;19.15;4.50;;;12.30;90.60;;;;;;9181947;19;20379;-69
2024/01/02 11:18:34;;;;;;;36.10;5.05;;;12.30;90.60;;;;;;9182018;19;20021;-70
2024/01/02 11:21:53;;;;;;;25.52;4.85;;;12.30;90.60;;;;;;9181639;19;20022;-69
2024/01/02 11:25:10;;;;;;;31.10;5.57;;;12.40;90.60;;;;;;9180277;19;20018;-71
2024/01/02 11:28:19;;;;;;;25.70;4.30;;;12.40;90.60;;;;;;9179853;19;20492;-74
2024/01/02 11:31:38;;;;;;;18.98;4.45;;;12.40;90.50;;;;;;9182071;19;20081;-73
2024/01/02 11:34:58;;;;;;;24.17;4.55;;;12.40;90.50;;;;;;9180070;19;20511;-69
2024/01/02 11:38:14;;;;;;;16.30;4.45;;;12.40;90.50;;;;;;9180870;19;20365;-70
2024/01/02 11:41:31;;;;;;;24.70;5.70;;;12.40;90.80;;;;;;9178162;19;20017;-69
2024/01/02 11:44:48;;;;;;;27.20;5.47;;;12.50;90.50;;;;;;9177460;19;20017;-70
2024/01/02 11:48:17;;;;;;;26.52;5.88;;;12.50;90.50;;;;;;9178136;19;20022;-70
2024/01/02 11:51:29;;;;;;;26.02;5.45;;;12.50;90.50;;;;;;9175709;19;20007;-70
2024/01/02 11:54:46;;;;;;;18.35;5.00;;;12.50;90.50;;;;;;9177887;19;20038;-68
2024/01/02 11:57:57;;;;;;;37.20;7.07;;;12.50;90.50;;;;;;9174947;19;20010;-75
2024/01/02 12:01:11;;;;;;;17.58;6.97;;;12.50;90.50;;;;;;9177299;19;20010;-74
2024/01/02 12:04:32;;;;;;;22.70;5.65;;;12.50;90.50;;;;;;9177904;19;20009;-75
2024/01/02 12:07:41;;;;;;;28.75;8.13;;;12.50;90.50;;;;;;9177904;19;20037;-75
2024/01/02 12:11:06;;;;;;;17.65;5.25;;;12.50;90.40;;;;;;9177947;19;20030;-75
2024/01/02 12:14:26;;;;;;;19.77;6.28;;;12.50;90.50;;;;;;9174334;19;20369;-75
2024/01/02 12:17:43;;;;;;;20.60;7.07;;;12.50;90.50;;;;;;9177926;19;20459;-75
2024/01/02 12:20:56;;;;;;;20.17;7.00;;;12.50;90.40;;;;;;9178347;19;20015;-76
2024/01/02 12:24:09;;;;;;;21.60;7.90;;;12.50;90.40;;;;;;9176409;19;20026;-76
2024/01/02 12:27:23;;;;;;;21.05;7.13;;;12.50;90.50;;;;;;9180275;19;20306;-75
2024/01/02 12:30:38;;;;;;;15.85;6.90;;;12.50;90.50;;;;;;9179756;19;20038;-74
2024/01/02 12:33:49;;;;;;;18.15;6.40;;;12.60;90.50;;;;;;9179529;19;20953;-76
2024/01/02 12:37:08;;;;;;;11.97;6.00;;;12.50;90.40;;;;;;9179915;19;20030;-76
2024/01/02 12:40:18;;;;;;;8.82;4.15;;;12.50;90.40;;;;;;9178011;19;20029;-75
2024/01/02 12:43:31;;;;;;;8.77;3.78;;;12.50;90.40;;;;;;9177295;19;20017;-76
2024/01/02 12:46:50;;;;;;;4.13;2.58;;;12.60;90.50;;;;;;9179028;19;20487;-76
2024/01/02 12:50:04;;;;;;;5.40;2.65;;;12.50;90.50;;;;;;9172704;19;20015;-75
2024/01/02 12:53:12;;;;;;;5.05;2.50;;;12.50;90.50;;;;;;9178195;19;20077;-75
2024/01/02 12:56:26;;;;;;;2.60;2.10;;;12.50;90.50;;;;;;9176541;19;20017;-75
2024/01/02 12:59:45;;;;;;;2.78;2.13;;;12.40;90.50;;;;;;9177020;19;20785;-76
2024/01/02 13:02:56;;;;;;;5.45;2.10;;;12.40;90.50;;;;;;9174285;19;20495;-74
2024/01/02 13:06:03;;;;;;;2.67;1.83;;;12.40;90.50;;;;;;9174501;19;20010;-75
2024/01/02 13:09:13;;;;;;;1.98;1.77;;;12.40;90.50;;;;;;9171418;19;20014;-76
2024/01/02 13:12:19;;;;;;;3.08;1.80;;;12.40;90.60;;;;;;9174570;19;20022;-74
2024/01/02 13:15:30;;;;;;;3.72;1.50;;;12.40;90.60;;;;;;9174530;19;20011;-75
2024/01/02 13:18:36;;;;;;;3.30;1.95;;;12.40;90.60;;;;;;9172552;19;20042;-75
2024/01/02 13:21:46;;;;;;;2.30;2.05;;;12.40;90.60;;;;;;9174288;19;20169;-74
2024/01/02 13:24:53;;;;;;;4.45;1.90;;;12.40;90.60;;;;;;9173607;19;20056;-75
2024/01/02 13:28:19;;;;;;;2.03;1.80;;;12.40;90.60;;;;;;9176499;19;20011;-75
2024/01/02 13:31:36;;;;;;;1.30;1.20;;;12.40;90.60;;;;;;9170413;19;20019;-74
2024/01/02 13:34:44;;;;;;;1.60;1.50;;;12.40;90.60;;;;;;9172572;19;20015;-75
2024/01/02 13:37:50;;;;;;;2.55;1.10;;;12.40;90.60;;;;;;9173214;19;20049;-76
2024/01/02 13:41:04;;;;;;;1.33;1.20;;;12.40;90.60;;;;;;9173515;19;20021;-75
2024/01/02 13:44:10;;;;;;;2.50;1.40;;;12.40;90.60;;;;;;9174783;19;20081;-75
2024/01/02 13:47:31;;;;;;;1.15;1.05;;;12.30;90.60;;;;;;9176175;19;20022;-76
2024/01/02 13:50:39;;;;;;;3.17;0.90;;;12.30;90.60;;;;;;9164711;19;20022;-75
2024/01/02 13:54:00;;;;;;;0.60;0.60;;;12.30;90.60;;;;;;9175222;19;20503;-75
2024/01/02 13:57:06;;;;;;;2.60;1.30;;;12.30;90.60;;;;;;9173896;19;20018;-74
2024/01/02 14:00:17;;;;;;;0.70;0.70;;;12.30;90.60;;;;;;9175544;19;20025;-75
2024/01/02 14:03:25;;;;;;;0.40;0.40;;;12.20;90.50;;;;;;9171235;19;20018;-75
2024/01/02 14:06:34;;;;;;;2.63;0.40;;;12.20;90.60;;;;;;9171406;19;20021;-75
2024/01/02 14:09:45;;;;;;;0.57;0.40;;;12.10;90.60;;;;;;9175200;19;20414;-76
2024/01/02 14:12:55;;;;;;;0.82;0.30;;;12.20;90.60;;;;;;9174738;19;20030;-74
2024/01/02 14:16:03;;;;;;;0.68;0.55;;;12.10;90.50;;;;;;9173726;19;20022;-75
2024/01/02 14:19:15;;;;;;;0.82;0.28;;;12.10;90.60;;;;;;9174690;19;20006;-70
2024/01/02 14:22:29;;;;;;;3.28;2.47;;;12.10;90.60;;;;;;9173318;19;20583;-70
2024/01/02 14:25:49;;;;;;;0.77;0.40;;;12.10;90.60;;;;;;9183984;19;20034;-71
2024/01/02 14:29:04;;;;;;;0.55;0.40;;;12.10;90.60;;;;;;9182622;19;20014;-70
2024/01/02 14:32:24;;;;;;;0.20;0.20;;;12.00;90.50;;;;;;9179547;19;20010;-70
2024/01/02 14:35:41;;;;;;;0.30;0.30;;;12.00;90.50;;;;;;9180414;19;20022;-71
2024/01/02 14:39:16;;;;;;;0.30;0.30;;;12.00;90.50;;;;;;9180030;19;20018;-69
2024/01/02 14:42:37;;;;;;;0.25;0.25;;;12.00;90.50;;;;;;9181244;19;20029;-72
2024/01/02 14:45:54;;;;;;;0.38;0.38;;;11.90;90.50;;;;;;9179937;19;20361;-73
2024/01/02 14:49:15;;;;;;;0.75;0.75;;;11.90;90.50;;;;;;9173917;19;20109;-71
2024/01/02 14:52:51;;;;;;;0.95;0.20;;;11.80;90.50;;;;;;9181533;19;20022;-69
2024/01/02 14:56:05;;;;;;;;;;;11.80;90.50;;;;;;9179563;19;20010;-70
2024/01/02 14:59:30;;;;;;;0.30;0.30;;;11.80;90.50;;;;;;9179752;19;20440;-70
2024/01/02 15:03:14;;;;;;;2.38;0.50;;;11.80;90.50;;;;;;9179106;19;20018;-71
2024/01/02 15:06:25;;;;;;;1.98;0.50;;;11.80;90.50;;;;;;9178961;19;20014;-70
2024/01/02 15:09:40;;;;;;;0.38;0.38;;;11.70;90.40;;;;;;9179756;19;20011;-71
2024/01/02 15:12:57;;;;;;;0.63;0.63;;;11.70;90.70;;;;;;9177109;19;20019;-70
2024/01/02 15:16:18;;;;;;;2.83;0.70;;;11.70;90.50;;;;;;9181693;19;20021;-71
2024/01/02 15:19:58;;;;;;;0.57;0.45;;;11.60;90.50;;;;;;9179795;19;20026;-70
2024/01/02 15:23:19;;;;;;;1.95;0.70;;;11.70;90.50;;;;;;9178506;19;21100;-70
2024/01/02 15:26:35;;;;;;;0.73;0.63;;;11.60;90.50;;;;;;9178107;19;20021;-71
2024/01/02 15:29:46;;;;;;;0.57;0.57;;;11.60;90.50;;;;;;9179824;19;20029;-74
2024/01/02 15:32:56;;;;;;;0.65;0.55;;;11.60;90.40;;;;;;9173813;19;20022;-74
2024/01/02 15:36:11;;;;;;;1.80;0.73;;;11.60;90.50;;;;;;9176140;19;20019;-74
2024/01/02 15:39:19;;;;;;;1.02;0.60;;;11.50;90.50;;;;;;9178060;19;20022;-73
2024/01/02 15:42:34;;;;;;;0.70;0.70;;;11.50;90.50;;;;;;9176548;19;20022;-73
2024/01/02 15:45:48;;;;;;;1.55;0.95;;;11.50;90.50;;;;;;9174923;19;20011;-74
2024/01/02 15:49:02;;;;;;;0.95;0.80;;;11.50;90.50;;;;;;9171305;19;20353;-74
2024/01/02 15:52:13;;;;;;;;;;;11.50;90.50;;;;;;9174504;19;20495;-73
2024/01/02 15:55:22;;;;;;;2.35;1.20;;;11.50;90.50;;;;;;9174646;19;19918;-72
2024/01/02 15:58:35;;;;;;;3.83;1.05;;;11.50;90.50;;;;;;9177118;19;20026;-73
2024/01/02 16:01:45;;;;;;;1.35;0.95;;;11.50;90.50;;;;;;9179047;19;20025;-73
2024/01/02 16:05:03;;;;;;;1.98;1.10;;;11.50;90.50;;;;;;9174802;19;20022;-73
2024/01/02 16:08:21;;;;;;;4.13;0.93;;;11.50;90.60;;;;;;9172655;19;20027;-72
2024/01/02 16:11:46;;;;;;;1.30;1.05;;;11.50;90.60;;;;;;9174731;19;20025;-73
2024/01/02 16:15:15;;;;;;;3.13;1.40;;;11.50;90.60;;;;;;9179812;19;20014;-74
2024/01/02 16:18:54;;;;;;;1.73;1.20;;;11.50;90.60;;;;;;9177449;19;20014;-74
2024/01/02 16:22:26;;;;;;;5.32;3.20;;;11.40;90.60;;;;;;9177681;19;20060;-73
2024/01/02 16:26:02;;;;;;;2.20;1.60;;;11.40;90.60;;;;;;9177722;19;20021;-73
2024/01/02 16:29:24;;;;;;;1.88;1.55;;;11.40;90.60;;;;;;9176976;19;20056;-73
2024/01/02 16:32:46;;;;;;;3.55;1.60;;;11.40;90.70;;;;;;9177048;19;20018;-74
2024/01/02 16:36:12;;;;;;;1.60;1.40;;;11.50;90.70;;;;;;9179650;19;20085;-73